Horton, Kentucky
Current Conditions -  °F | °C
As of 1:35 PM on Thursday 23 Oct 2014 (Local Time) from K2I0 Reporting Station
Clear Clear  
Wind Chill: 17°   Ceiling: Unl
Heat Index: 17°   Visibility: 7mi
Dew Point:   Wind: 5mph
Humidity: 49%   Direction: 100°E
Pressure: 30.18"   Gusts: NA
Location:  37.3559°N, 86.8747°W
Report Text: K2I0 231835Z AUTO 10004KT 7SM CLR 17/06 A3018 RMK AO2 T01700061
Loading
Personal Weather Stations






























Interactive Weather Map
Tropical Storm Tracking
New forecast layout! Learn more

10-Day Weather Forecast

Advertisements
Track Severe Weather on mobile